createdAt,value
2018-12-05T00:00:59.523Z,0
2018-12-05T00:02:09.212Z,0
2018-12-05T00:03:19.158Z,0
2018-12-05T00:04:28.833Z,0
2018-12-05T00:05:38.269Z,0
2018-12-05T00:06:48.218Z,0
2018-12-05T00:07:58.173Z,0
2018-12-05T00:09:08.115Z,0
2018-12-05T00:10:18.053Z,0
2018-12-05T00:11:27.741Z,0
2018-12-05T00:12:37.439Z,0
2018-12-05T00:13:47.386Z,0
2018-12-05T00:14:57.419Z,0
2018-12-05T00:16:07.355Z,0
2018-12-05T00:17:17.310Z,0
2018-12-05T00:18:27.011Z,0
2018-12-05T00:19:36.693Z,0
2018-12-05T00:20:46.629Z,0
2018-12-05T00:21:56.563Z,0
2018-12-05T00:23:06.514Z,0
2018-12-05T00:24:16.251Z,0
2018-12-05T00:25:25.949Z,0
2018-12-05T00:26:35.640Z,0
2018-12-05T00:27:45.593Z,0
2018-12-05T00:28:55.551Z,0
2018-12-05T00:30:05.240Z,0
2018-12-05T00:31:14.938Z,0
2018-12-05T00:32:24.873Z,0
2018-12-05T00:33:34.804Z,0
2018-12-05T00:34:44.236Z,0
2018-12-05T00:35:54.178Z,0
2018-12-05T00:37:04.123Z,0
2018-12-05T00:38:14.066Z,0
2018-12-05T00:39:24.005Z,0
2018-12-05T00:40:33.958Z,0
2018-12-05T00:41:43.898Z,0
2018-12-05T00:42:53.578Z,0
2018-12-05T00:44:03.529Z,0
2018-12-05T00:45:13.230Z,0
2018-12-05T00:46:22.919Z,0
2018-12-05T00:47:32.600Z,0
2018-12-05T00:48:42.546Z,0
2018-12-05T00:49:52.489Z,0
2018-12-05T00:51:02.430Z,0
2018-12-05T00:52:12.379Z,0
2018-12-05T00:53:22.079Z,0
2018-12-05T00:54:32.014Z,0
2018-12-05T00:55:41.452Z,0
2018-12-05T00:56:51.395Z,0
2018-12-05T00:58:01.084Z,0
2018-12-05T00:59:11.034Z,0
2018-12-05T01:00:20.744Z,0
2018-12-05T01:01:30.434Z,0
2018-12-05T01:02:40.369Z,0
2018-12-05T01:03:50.312Z,0
2018-12-05T01:05:00.050Z,0
2018-12-05T01:06:09.996Z,0
2018-12-05T01:07:19.684Z,0
2018-12-05T01:08:29.372Z,0
2018-12-05T01:09:38.809Z,0
2018-12-05T01:10:48.749Z,0
2018-12-05T01:11:58.683Z,0
2018-12-05T01:13:08.619Z,0
2018-12-05T01:14:18.320Z,0
2018-12-05T01:15:28.027Z,0
2018-12-05T01:16:37.727Z,0
2018-12-05T01:17:47.674Z,0
2018-12-05T01:18:57.613Z,0
2018-12-05T01:20:07.562Z,0
2018-12-05T01:21:17.544Z,0
2018-12-05T01:22:27.230Z,0
2018-12-05T01:23:37.174Z,0
2018-12-05T01:24:46.858Z,0
2018-12-05T01:25:56.791Z,0
2018-12-05T01:27:06.740Z,0
2018-12-05T01:28:16.685Z,0
2018-12-05T01:29:26.624Z,0
2018-12-05T01:30:36.561Z,0
2018-12-05T01:31:46.490Z,0
2018-12-05T01:32:56.415Z,0
2018-12-05T01:34:05.858Z,0
2018-12-05T01:35:15.813Z,0
2018-12-05T01:36:25.749Z,0
2018-12-05T01:37:35.192Z,0
2018-12-05T01:38:44.895Z,0
2018-12-05T01:39:54.592Z,0
2018-12-05T01:41:04.030Z,0
2018-12-05T01:42:13.723Z,0
2018-12-05T01:43:23.431Z,0
2018-12-05T01:44:33.374Z,0
2018-12-05T01:45:43.066Z,0
2018-12-05T01:46:53.095Z,0
2018-12-05T01:48:02.547Z,0
2018-12-05T01:49:12.555Z,0
2018-12-05T01:50:22.563Z,0
2018-12-05T01:51:32.509Z,0
2018-12-05T01:52:41.950Z,0
2018-12-05T01:53:51.631Z,0
2018-12-05T01:55:01.582Z,0
2018-12-05T01:56:11.520Z,0
2018-12-05T01:57:21.203Z,0
2018-12-05T01:58:31.142Z,0
2018-12-05T01:59:40.576Z,0
2018-12-05T02:00:50.513Z,0
2018-12-05T02:02:00.543Z,0
2018-12-05T02:03:10.496Z,0
2018-12-05T02:04:19.938Z,0
2018-12-05T02:05:29.626Z,0
2018-12-05T02:06:39.584Z,0
2018-12-05T02:07:49.528Z,0
2018-12-05T02:08:59.482Z,0
2018-12-05T02:10:09.168Z,0
2018-12-05T02:11:18.607Z,0
2018-12-05T02:12:28.558Z,0
2018-12-05T02:13:38.508Z,0
2018-12-05T02:14:48.466Z,0
2018-12-05T02:15:58.396Z,0
2018-12-05T02:17:08.417Z,0
2018-12-05T02:18:18.352Z,0
2018-12-05T02:19:28.293Z,0
2018-12-05T02:20:37.978Z,0
2018-12-05T02:21:47.923Z,0
2018-12-05T02:22:57.891Z,0
2018-12-05T02:24:07.650Z,0
2018-12-05T02:25:17.596Z,0
2018-12-05T02:26:27.530Z,0
2018-12-05T02:27:37.239Z,0
2018-12-05T02:28:47.199Z,0
2018-12-05T02:29:57.143Z,0
2018-12-05T02:31:07.088Z,0
2018-12-05T02:32:17.018Z,0
2018-12-05T02:33:26.959Z,0
2018-12-05T02:34:36.646Z,0
2018-12-05T02:35:46.599Z,0
2018-12-05T02:36:56.280Z,0
2018-12-05T02:38:05.978Z,0
2018-12-05T02:39:15.424Z,0
2018-12-05T02:40:25.425Z,0
2018-12-05T02:41:35.128Z,0
2018-12-05T02:42:45.068Z,0
2018-12-05T02:43:54.992Z,0
2018-12-05T02:45:04.769Z,0
2018-12-05T02:46:14.233Z,0
2018-12-05T02:47:23.942Z,0
2018-12-05T02:48:33.616Z,0
2018-12-05T02:49:43.068Z,0
2018-12-05T02:50:53.011Z,0
2018-12-05T02:52:02.452Z,0
2018-12-05T02:53:12.140Z,0
2018-12-05T02:54:22.084Z,0
2018-12-05T02:55:32.064Z,0
2018-12-05T02:56:41.755Z,0
2018-12-05T02:57:51.474Z,0
2018-12-05T02:59:01.164Z,0
2018-12-05T03:00:10.615Z,0
2018-12-05T03:01:20.312Z,0
2018-12-05T03:02:30.003Z,0
2018-12-05T03:03:39.967Z,0
2018-12-05T03:04:49.661Z,0
2018-12-05T03:05:59.365Z,0
2018-12-05T03:07:09.321Z,0
2018-12-05T03:08:19.342Z,0
2018-12-05T03:09:29.274Z,0
2018-12-05T03:10:39.231Z,0
2018-12-05T03:11:49.177Z,0
2018-12-05T03:12:58.873Z,0
2018-12-05T03:14:08.572Z,0
2018-12-05T03:15:18.498Z,0
2018-12-05T03:16:28.435Z,0
2018-12-05T03:17:38.383Z,0
2018-12-05T03:18:48.067Z,0
2018-12-05T03:19:58.026Z,0
2018-12-05T03:21:07.713Z,0
2018-12-05T03:22:17.465Z,0
2018-12-05T03:23:27.153Z,0
2018-12-05T03:24:37.125Z,0
2018-12-05T03:25:46.821Z,0
2018-12-05T03:26:56.789Z,0
2018-12-05T03:28:06.492Z,0
2018-12-05T03:29:16.198Z,0
2018-12-05T03:30:25.966Z,0
2018-12-05T03:31:35.773Z,0
2018-12-05T03:32:45.526Z,0
2018-12-05T03:33:55.241Z,0
2018-12-05T03:35:04.938Z,0
2018-12-05T03:36:14.633Z,0
2018-12-05T03:37:24.426Z,0
2018-12-05T03:38:34.121Z,0
2018-12-05T03:39:43.815Z,0
2018-12-05T03:40:53.508Z,0
2018-12-05T03:42:02.950Z,0
2018-12-05T03:43:12.899Z,0
2018-12-05T03:44:22.865Z,0
2018-12-05T03:45:33.925Z,0
2018-12-05T03:46:43.875Z,0
2018-12-05T03:47:53.947Z,0
2018-12-05T03:49:03.654Z,0
2018-12-05T03:50:13.351Z,0
2018-12-05T03:51:23.301Z,0
2018-12-05T03:52:33.233Z,0
2018-12-05T03:53:43.171Z,0
2018-12-05T03:54:52.866Z,0
2018-12-05T03:56:02.555Z,0
2018-12-05T03:57:12.521Z,0
2018-12-05T03:58:22.216Z,0
2018-12-05T03:59:31.655Z,0
2018-12-05T04:00:41.346Z,0
2018-12-05T04:01:51.290Z,0
2018-12-05T04:03:00.987Z,0
2018-12-05T04:04:10.938Z,0
2018-12-05T04:05:20.876Z,0
2018-12-05T04:06:30.571Z,0
2018-12-05T04:07:40.518Z,0
2018-12-05T04:08:49.977Z,0
2018-12-05T04:09:59.945Z,0
2018-12-05T04:11:09.393Z,0
2018-12-05T04:12:19.343Z,0
2018-12-05T04:13:28.786Z,0
2018-12-05T04:14:38.742Z,0
2018-12-05T04:15:48.428Z,0
2018-12-05T04:16:58.122Z,0
2018-12-05T04:18:07.320Z,0
2018-12-05T04:19:17.275Z,0
2018-12-05T04:20:27.213Z,0
2018-12-05T04:21:37.183Z,0
2018-12-05T04:22:47.125Z,0
2018-12-05T04:23:57.056Z,0
2018-12-05T04:25:07.004Z,0
2018-12-05T04:26:16.512Z,0
2018-12-05T04:27:26.454Z,0
2018-12-05T04:28:36.429Z,0
2018-12-05T04:29:46.129Z,0
2018-12-05T04:30:56.139Z,0
2018-12-05T04:32:06.104Z,0
2018-12-05T04:33:15.793Z,0
2018-12-05T04:34:25.736Z,0
2018-12-05T04:35:35.442Z,0
2018-12-05T04:36:45.387Z,0
2018-12-05T04:37:55.181Z,0
2018-12-05T04:39:04.870Z,0
2018-12-05T04:40:14.809Z,0
2018-12-05T04:41:24.772Z,0
2018-12-05T04:42:34.461Z,0
2018-12-05T04:43:44.400Z,0
2018-12-05T04:44:54.357Z,0
2018-12-05T04:46:03.799Z,0
2018-12-05T04:47:13.740Z,0
2018-12-05T04:48:23.684Z,0
2018-12-05T04:49:33.643Z,0
2018-12-05T04:50:44.074Z,0
2018-12-05T04:51:54.015Z,0
2018-12-05T04:53:03.950Z,0
2018-12-05T04:54:13.656Z,0
2018-12-05T04:55:23.611Z,0
2018-12-05T04:56:33.062Z,0
2018-12-05T04:57:42.511Z,0
2018-12-05T04:58:52.202Z,0
2018-12-05T05:00:01.904Z,0
2018-12-05T05:01:11.610Z,0
2018-12-05T05:02:21.309Z,0
2018-12-05T05:03:30.760Z,0
2018-12-05T05:04:40.713Z,0
2018-12-05T05:05:50.403Z,0
2018-12-05T05:07:00.351Z,0
2018-12-05T05:08:10.310Z,0
2018-12-05T05:09:20.256Z,0
2018-12-05T05:10:30.201Z,0
2018-12-05T05:11:39.898Z,0
2018-12-05T05:12:49.847Z,0
2018-12-05T05:13:59.800Z,0
2018-12-05T05:15:09.488Z,0
2018-12-05T05:16:19.432Z,0
2018-12-05T05:17:29.383Z,0
2018-12-05T05:18:39.308Z,0
2018-12-05T05:19:49.240Z,0
2018-12-05T05:20:59.177Z,0
2018-12-05T05:22:09.117Z,0
2018-12-05T05:23:19.071Z,0
2018-12-05T05:24:29.015Z,0
2018-12-05T05:25:38.457Z,0
2018-12-05T05:26:48.408Z,0
2018-12-05T05:27:58.092Z,0
2018-12-05T05:29:08.058Z,0
2018-12-05T05:30:18.231Z,0
2018-12-05T05:31:28.700Z,0
2018-12-05T05:32:38.413Z,0
2018-12-05T05:33:48.354Z,0
2018-12-05T05:34:58.288Z,0
2018-12-05T05:36:08.004Z,0
2018-12-05T05:37:17.939Z,0
2018-12-05T05:38:27.625Z,0
2018-12-05T05:39:37.319Z,0
2018-12-05T05:40:47.246Z,0
2018-12-05T05:41:56.925Z,0
2018-12-05T05:43:06.865Z,0
2018-12-05T05:44:17.501Z,0
2018-12-05T05:45:27.424Z,0
2018-12-05T05:46:37.377Z,0
2018-12-05T05:47:47.317Z,0
2018-12-05T05:48:57.241Z,0
2018-12-05T05:50:07.187Z,0
2018-12-05T05:51:16.893Z,0
2018-12-05T05:52:26.575Z,0
2018-12-05T05:53:36.507Z,0
2018-12-05T05:54:45.942Z,0
2018-12-05T05:55:55.955Z,0
2018-12-05T05:57:05.649Z,0
2018-12-05T05:58:15.333Z,0
2018-12-05T05:59:25.379Z,0
2018-12-05T06:00:35.313Z,0
2018-12-05T06:01:45.253Z,0
2018-12-05T06:02:55.208Z,0
2018-12-05T06:04:05.144Z,0
2018-12-05T06:05:14.588Z,0
2018-12-05T06:06:24.270Z,0
2018-12-05T06:07:33.962Z,0
2018-12-05T06:08:43.903Z,0
2018-12-05T06:09:53.590Z,0
2018-12-05T06:11:03.541Z,0
2018-12-05T06:12:13.502Z,0
2018-12-05T06:13:23.213Z,0
2018-12-05T06:14:32.665Z,0
2018-12-05T06:15:42.621Z,0
2018-12-05T06:16:52.565Z,0
2018-12-05T06:18:02.513Z,0
2018-12-05T06:19:12.607Z,0
2018-12-05T06:20:22.554Z,0
2018-12-05T06:21:31.992Z,0
2018-12-05T06:22:41.930Z,0
2018-12-05T06:23:51.614Z,0
2018-12-05T06:25:01.304Z,0
2018-12-05T06:26:11.252Z,0
2018-12-05T06:27:20.681Z,0
2018-12-05T06:28:30.371Z,0
2018-12-05T06:29:40.067Z,0
2018-12-05T06:30:50.014Z,0
2018-12-05T06:31:59.955Z,0
2018-12-05T06:33:09.888Z,0
2018-12-05T06:34:19.839Z,0
2018-12-05T06:35:29.767Z,0
2018-12-05T06:36:39.453Z,0
2018-12-05T06:37:49.422Z,0
2018-12-05T06:39:01.775Z,0
2018-12-05T06:40:11.714Z,0
2018-12-05T06:41:21.404Z,0
2018-12-05T06:42:31.351Z,0
2018-12-05T06:43:41.270Z,0
2018-12-05T06:44:51.230Z,0
2018-12-05T06:46:00.665Z,5
2018-12-05T06:47:10.361Z,5
2018-12-05T06:48:20.311Z,5
2018-12-05T06:49:30.265Z,5
2018-12-05T06:50:40.210Z,5
2018-12-05T06:51:50.169Z,5
2018-12-05T06:53:00.114Z,10
2018-12-05T06:54:10.561Z,10
2018-12-05T06:55:20.610Z,10
2018-12-05T06:56:30.296Z,10
2018-12-05T06:57:39.983Z,15
2018-12-05T06:58:49.914Z,15
2018-12-05T06:59:59.876Z,15
2018-12-05T07:01:09.866Z,15
2018-12-05T07:02:19.560Z,20
2018-12-05T07:03:29.237Z,20
2018-12-05T07:04:38.927Z,20
2018-12-05T07:05:48.873Z,25
2018-12-05T07:06:58.567Z,25
2018-12-05T07:08:08.511Z,30
2018-12-05T07:09:17.685Z,30
2018-12-05T07:10:26.634Z,30
2018-12-05T07:11:36.350Z,35
2018-12-05T07:12:46.284Z,35
2018-12-05T07:13:56.216Z,40
2018-12-05T07:15:05.888Z,40
2018-12-05T07:16:15.861Z,45
2018-12-05T07:17:25.315Z,45
2018-12-05T07:18:36.587Z,45
2018-12-05T07:19:46.287Z,50
2018-12-05T07:20:56.229Z,50
2018-12-05T07:22:05.917Z,55
2018-12-05T07:23:15.864Z,55
2018-12-05T07:24:25.576Z,60
2018-12-05T07:25:35.506Z,60
2018-12-05T07:26:45.248Z,65
2018-12-05T07:27:55.259Z,65
2018-12-05T07:29:04.943Z,70
2018-12-05T07:30:14.875Z,75
2018-12-05T07:31:24.827Z,75
2018-12-05T07:32:34.523Z,75
2018-12-05T07:33:44.474Z,75
2018-12-05T07:34:54.430Z,80
2018-12-05T07:36:04.123Z,80
2018-12-05T07:37:14.082Z,95
2018-12-05T07:38:29.103Z,110
2018-12-05T07:39:39.038Z,115
2018-12-05T07:40:48.717Z,115
2018-12-05T07:41:58.667Z,115
2018-12-05T07:43:08.619Z,115
2018-12-05T07:44:18.381Z,115
2018-12-05T07:45:28.106Z,125
2018-12-05T07:46:37.882Z,125
2018-12-05T07:47:47.824Z,130
2018-12-05T07:48:57.781Z,130
2018-12-05T07:50:07.517Z,130
2018-12-05T07:51:17.482Z,135
2018-12-05T07:52:27.195Z,140
2018-12-05T07:53:37.161Z,145
2018-12-05T07:54:46.670Z,150
2018-12-05T07:55:56.679Z,150
2018-12-05T07:57:06.401Z,155
2018-12-05T07:58:16.381Z,160
2018-12-05T07:59:26.331Z,160
2018-12-05T08:00:36.025Z,160
2018-12-05T08:01:46.037Z,165
2018-12-05T08:02:55.992Z,170
2018-12-05T08:04:05.707Z,175
2018-12-05T08:05:15.636Z,180
2018-12-05T08:06:25.072Z,185
2018-12-05T08:07:35.018Z,190
2018-12-05T08:08:44.981Z,190
2018-12-05T08:09:54.933Z,195
2018-12-05T08:11:04.918Z,200
2018-12-05T08:12:14.642Z,210
2018-12-05T08:13:24.589Z,215
2018-12-05T08:14:34.543Z,215
2018-12-05T08:15:44.486Z,225
2018-12-05T08:16:54.436Z,230
2018-12-05T08:18:04.366Z,235
2018-12-05T08:19:14.100Z,235
2018-12-05T08:20:24.074Z,250
2018-12-05T08:21:33.546Z,260
2018-12-05T08:22:43.248Z,270
2018-12-05T08:23:52.932Z,275
2018-12-05T08:25:02.631Z,285
2018-12-05T08:26:12.346Z,300
2018-12-05T08:27:22.050Z,325
2018-12-05T08:28:31.750Z,345
2018-12-05T08:29:41.687Z,365
2018-12-05T08:30:51.398Z,375
2018-12-05T08:32:01.106Z,390
2018-12-05T08:33:11.114Z,400
2018-12-05T08:34:21.087Z,415
2018-12-05T08:35:31.136Z,425
2018-12-05T08:36:40.848Z,440
2018-12-05T08:37:50.544Z,445
2018-12-05T08:39:00.519Z,450
2018-12-05T08:40:10.468Z,465
2018-12-05T08:41:20.426Z,485
2018-12-05T08:42:30.377Z,500
2018-12-05T08:43:40.330Z,520
2018-12-05T08:44:50.086Z,515
2018-12-05T08:46:00.060Z,520
2018-12-05T08:47:10.008Z,515
2018-12-05T08:48:19.976Z,515
2018-12-05T08:49:30.198Z,555
2018-12-05T08:50:40.150Z,580
2018-12-05T08:51:49.861Z,580
2018-12-05T08:52:59.819Z,575
2018-12-05T08:54:09.762Z,595
2018-12-05T08:55:19.466Z,610
2018-12-05T08:56:29.465Z,620
2018-12-05T08:57:39.174Z,635
2018-12-05T08:58:48.639Z,645
2018-12-05T08:59:58.586Z,655
2018-12-05T09:01:08.027Z,680
2018-12-05T09:02:17.997Z,685
2018-12-05T09:03:27.696Z,690
2018-12-05T09:04:37.400Z,680
2018-12-05T09:05:47.381Z,690
2018-12-05T09:06:56.851Z,690
2018-12-05T09:08:06.825Z,705
2018-12-05T09:09:16.779Z,745
2018-12-05T09:10:26.723Z,765
2018-12-05T09:11:36.922Z,770
2018-12-05T09:12:46.867Z,810
2018-12-05T09:13:56.834Z,800
2018-12-05T09:15:07.250Z,790
2018-12-05T09:16:17.046Z,780
2018-12-05T09:17:30.233Z,815
2018-12-05T09:18:39.950Z,815
2018-12-05T09:19:49.912Z,845
2018-12-05T09:20:59.635Z,865
2018-12-05T09:22:09.602Z,875
2018-12-05T09:23:19.566Z,880
2018-12-05T09:24:29.549Z,870
2018-12-05T09:25:39.504Z,870
2018-12-05T09:26:49.461Z,895
2018-12-05T09:27:59.475Z,945
2018-12-05T09:29:09.194Z,960
2018-12-05T09:30:18.910Z,880
2018-12-05T09:31:28.906Z,905
2018-12-05T09:32:38.855Z,990
2018-12-05T09:33:48.569Z,985
2018-12-05T09:34:58.534Z,980
2018-12-05T09:36:08.237Z,990
2018-12-05T09:37:17.954Z,985
2018-12-05T09:38:27.909Z,1045
2018-12-05T09:39:37.862Z,1125
2018-12-05T09:40:51.416Z,1050
2018-12-05T09:42:01.123Z,1050
2018-12-05T09:43:10.832Z,1050
2018-12-05T09:44:20.293Z,1105
2018-12-05T09:45:30.470Z,1095
2018-12-05T09:46:40.474Z,1105
2018-12-05T09:47:50.453Z,1090
2018-12-05T09:48:59.905Z,1160
2018-12-05T09:50:09.875Z,1180
2018-12-05T09:51:19.835Z,1130
2018-12-05T09:52:29.593Z,1130
2018-12-05T09:53:41.243Z,1165
2018-12-05T09:54:51.223Z,1105
2018-12-05T09:56:00.962Z,955
2018-12-05T09:57:10.413Z,945
2018-12-05T09:58:19.863Z,1110
2018-12-05T09:59:29.575Z,1185
2018-12-05T10:00:39.521Z,1265
2018-12-05T10:01:49.247Z,1290
2018-12-05T10:02:58.949Z,1295
2018-12-05T10:04:08.437Z,1260
2018-12-05T10:05:18.392Z,1265
2018-12-05T10:06:28.351Z,1270
2018-12-05T10:07:38.291Z,1225
2018-12-05T10:08:48.250Z,1255
2018-12-05T10:09:57.707Z,1270
2018-12-05T10:11:07.658Z,1305
2018-12-05T10:12:17.604Z,1305
2018-12-05T10:13:27.555Z,1310
2018-12-05T10:14:37.514Z,1330
2018-12-05T10:15:47.472Z,1280
2018-12-05T10:16:57.182Z,1320
2018-12-05T10:18:06.628Z,1285
2018-12-05T10:19:16.635Z,1340
2018-12-05T10:20:26.630Z,1385
2018-12-05T10:21:36.341Z,1350
2018-12-05T10:22:46.315Z,1400
2018-12-05T10:23:56.046Z,1125
2018-12-05T10:25:05.735Z,1225
2018-12-05T10:26:15.741Z,1325
2018-12-05T10:27:25.703Z,1355
2018-12-05T10:28:35.426Z,1365
2018-12-05T10:29:45.415Z,1375
2018-12-05T10:30:55.460Z,1385
2018-12-05T10:32:05.216Z,1395
2018-12-05T10:33:15.179Z,1465
2018-12-05T10:34:25.144Z,1495
2018-12-05T10:35:34.356Z,1435
2018-12-05T10:36:44.321Z,1475
2018-12-05T10:37:54.532Z,1485
2018-12-05T10:39:04.064Z,1455
2018-12-05T10:40:13.516Z,1405
2018-12-05T10:41:23.478Z,1385
2018-12-05T10:42:33.475Z,1395
2018-12-05T10:43:43.949Z,1405
2018-12-05T10:44:53.667Z,1500
2018-12-05T10:46:03.642Z,1485
2018-12-05T10:47:13.450Z,1465
2018-12-05T10:48:23.166Z,1510
2018-12-05T10:49:33.154Z,1550
2018-12-05T10:50:43.106Z,1510
2018-12-05T10:51:52.807Z,1570
2018-12-05T10:53:02.545Z,1595
2018-12-05T10:54:12.516Z,1570
2018-12-05T10:55:22.485Z,1590
2018-12-05T10:56:32.215Z,1580
2018-12-05T10:57:42.174Z,1560
2018-12-05T10:58:52.134Z,1600
2018-12-05T11:00:02.084Z,1595
2018-12-05T11:01:12.040Z,1505
2018-12-05T11:02:22.022Z,1515
2018-12-05T11:03:33.283Z,1580
2018-12-05T11:04:43.238Z,1685
2018-12-05T11:05:53.199Z,1625
2018-12-05T11:07:03.159Z,1525
2018-12-05T11:08:13.114Z,1525
2018-12-05T11:09:22.824Z,1555
2018-12-05T11:10:32.791Z,1585
2018-12-05T11:11:42.756Z,1620
2018-12-05T11:12:52.458Z,1655
2018-12-05T11:14:02.183Z,1645
2018-12-05T11:15:11.915Z,1595
2018-12-05T11:16:21.903Z,1570
2018-12-05T11:17:31.876Z,1640
2018-12-05T11:18:42.341Z,1650
2018-12-05T11:19:52.110Z,1610
2018-12-05T11:21:02.106Z,1560
2018-12-05T11:22:11.829Z,1500
2018-12-05T11:23:21.315Z,1560
2018-12-05T11:24:31.097Z,1590
2018-12-05T11:25:41.200Z,1595
2018-12-05T11:26:51.182Z,1610
2018-12-05T11:28:01.257Z,1610
2018-12-05T11:29:11.017Z,1635
2018-12-05T11:30:20.977Z,1680
2018-12-05T11:31:30.685Z,1605
2018-12-05T11:32:40.659Z,1605
2018-12-05T11:33:50.618Z,1655
2018-12-05T11:35:00.574Z,1730
2018-12-05T11:36:10.533Z,1745
2018-12-05T11:37:20.911Z,1720
2018-12-05T11:38:30.905Z,1740
2018-12-05T11:39:40.863Z,1715
2018-12-05T11:40:50.837Z,1715
2018-12-05T11:42:00.639Z,1715
2018-12-05T11:43:10.390Z,1690
2018-12-05T11:44:20.119Z,1710
2018-12-05T11:45:29.577Z,1690
2018-12-05T11:46:39.627Z,1740
2018-12-05T11:47:49.565Z,1735
2018-12-05T11:48:59.271Z,1725
2018-12-05T11:50:09.448Z,1750
2018-12-05T11:51:19.195Z,1790
2018-12-05T11:52:29.155Z,1765
2018-12-05T11:53:38.948Z,1685
2018-12-05T11:54:48.401Z,1690
2018-12-05T11:55:58.128Z,1760
2018-12-05T11:57:08.085Z,1750
2018-12-05T11:58:18.292Z,1635
2018-12-05T11:59:28.252Z,1605
2018-12-05T12:00:37.991Z,1660
2018-12-05T12:01:47.706Z,1660
2018-12-05T12:02:57.219Z,1710
2018-12-05T12:04:07.194Z,1695
2018-12-05T12:05:17.179Z,1665
2018-12-05T12:06:27.152Z,1690
2018-12-05T12:07:36.945Z,1715
2018-12-05T12:08:46.657Z,1700
2018-12-05T12:09:56.390Z,1720
2018-12-05T12:11:06.121Z,1735
2018-12-05T12:12:15.805Z,1750
2018-12-05T12:13:25.771Z,1805
2018-12-05T12:14:35.756Z,1735
2018-12-05T12:15:45.739Z,1685
2018-12-05T12:16:55.707Z,1710
2018-12-05T12:18:05.192Z,1725
2018-12-05T12:19:15.152Z,1725
2018-12-05T12:20:24.859Z,1680
2018-12-05T12:21:34.820Z,1650
2018-12-05T12:22:44.528Z,1530
2018-12-05T12:23:55.758Z,1390
2018-12-05T12:25:05.740Z,1575
2018-12-05T12:26:15.699Z,1575
2018-12-05T12:27:25.689Z,1585
2018-12-05T12:28:35.689Z,1660
2018-12-05T12:29:45.637Z,1710
2018-12-05T12:30:55.641Z,1690
2018-12-05T12:32:05.601Z,1605
2018-12-05T12:33:15.591Z,1560
2018-12-05T12:34:25.328Z,1245
2018-12-05T12:35:35.136Z,1485
2018-12-05T12:36:44.910Z,1460
2018-12-05T12:37:54.368Z,1560
2018-12-05T12:39:04.101Z,1480
2018-12-05T12:40:13.817Z,1620
2018-12-05T12:41:23.555Z,1615
2018-12-05T12:42:33.547Z,1425
2018-12-05T12:43:43.510Z,1400
2018-12-05T12:44:53.554Z,1395
2018-12-05T12:46:03.509Z,1440
2018-12-05T12:47:13.277Z,1475
2018-12-05T12:48:22.493Z,1500
2018-12-05T12:49:32.486Z,1565
2018-12-05T12:50:42.464Z,1595
2018-12-05T12:51:52.417Z,1285
2018-12-05T12:53:02.136Z,1465
2018-12-05T12:54:12.148Z,1260
2018-12-05T12:55:22.111Z,1100
2018-12-05T12:56:32.141Z,805
2018-12-05T12:57:41.843Z,735
2018-12-05T12:58:51.550Z,750
2018-12-05T13:00:01.519Z,645
2018-12-05T13:01:11.496Z,625
2018-12-05T13:02:21.186Z,715
2018-12-05T13:03:31.160Z,760
2018-12-05T13:04:40.873Z,665
2018-12-05T13:05:50.821Z,540
2018-12-05T13:07:00.512Z,585
2018-12-05T13:08:10.451Z,710
2018-12-05T13:09:20.404Z,870
2018-12-05T13:10:30.381Z,995
2018-12-05T13:11:40.338Z,1020
2018-12-05T13:12:50.296Z,960
2018-12-05T13:14:00.008Z,1050
2018-12-05T13:15:09.975Z,1055
2018-12-05T13:16:20.022Z,1085
2018-12-05T13:17:29.237Z,1160
2018-12-05T13:18:38.964Z,1135
2018-12-05T13:19:48.426Z,1075
2018-12-05T13:20:58.454Z,1030
2018-12-05T13:22:08.178Z,960
2018-12-05T13:23:18.152Z,930
2018-12-05T13:24:27.852Z,935
2018-12-05T13:25:37.796Z,945
2018-12-05T13:26:47.758Z,940
2018-12-05T13:27:57.724Z,920
2018-12-05T13:29:07.695Z,895
2018-12-05T13:30:17.391Z,950
2018-12-05T13:31:26.853Z,940
2018-12-05T13:32:36.553Z,965
2018-12-05T13:33:46.506Z,980
2018-12-05T13:34:56.455Z,960
2018-12-05T13:36:06.165Z,965
2018-12-05T13:37:16.116Z,980
2018-12-05T13:38:25.819Z,975
2018-12-05T13:39:35.536Z,980
2018-12-05T13:40:46.983Z,990
2018-12-05T13:41:57.084Z,1005
2018-12-05T13:43:07.034Z,975
2018-12-05T13:44:16.738Z,940
2018-12-05T13:45:26.436Z,945
2018-12-05T13:46:39.467Z,940
2018-12-05T13:47:49.437Z,885
2018-12-05T13:48:59.399Z,840
2018-12-05T13:50:09.355Z,785
2018-12-05T13:51:19.413Z,770
2018-12-05T13:52:29.103Z,775
2018-12-05T13:53:39.055Z,785
2018-12-05T13:54:49.000Z,785
2018-12-05T13:55:59.013Z,770
2018-12-05T13:57:09.062Z,745
2018-12-05T13:58:19.053Z,720
2018-12-05T13:59:29.011Z,700
2018-12-05T14:00:38.714Z,705
2018-12-05T14:01:48.432Z,675
2018-12-05T14:02:58.383Z,635
2018-12-05T14:04:08.096Z,595
2018-12-05T14:05:18.062Z,550
2018-12-05T14:06:28.029Z,530
2018-12-05T14:07:39.340Z,485
2018-12-05T14:08:49.317Z,495
2018-12-05T14:09:59.257Z,465
2018-12-05T14:11:08.947Z,420
2018-12-05T14:12:18.912Z,390
2018-12-05T14:13:28.854Z,305
2018-12-05T14:14:38.807Z,215
2018-12-05T14:15:48.510Z,150
2018-12-05T14:16:58.469Z,145
2018-12-05T14:18:11.029Z,135
2018-12-05T14:19:20.971Z,125
2018-12-05T14:20:30.685Z,120
2018-12-05T14:21:40.641Z,115
2018-12-05T14:22:50.669Z,110
2018-12-05T14:24:00.618Z,105
2018-12-05T14:25:10.327Z,100
2018-12-05T14:26:20.024Z,95
2018-12-05T14:27:30.003Z,90
2018-12-05T14:28:39.186Z,85
2018-12-05T14:29:48.641Z,80
2018-12-05T14:30:58.606Z,75
2018-12-05T14:32:08.559Z,70
2018-12-05T14:33:18.503Z,70
2018-12-05T14:34:28.457Z,65
2018-12-05T14:35:38.428Z,65
2018-12-05T14:36:48.381Z,60
2018-12-05T14:37:58.338Z,55
2018-12-05T14:39:08.068Z,55
2018-12-05T14:40:17.790Z,50
2018-12-05T14:41:27.240Z,45
2018-12-05T14:42:37.260Z,45
2018-12-05T14:43:47.285Z,40
2018-12-05T14:44:56.999Z,40
2018-12-05T14:46:07.428Z,35
2018-12-05T14:47:16.954Z,30
2018-12-05T14:48:26.910Z,30
2018-12-05T14:49:36.861Z,25
2018-12-05T14:50:46.943Z,25
2018-12-05T14:51:56.885Z,20
2018-12-05T14:53:06.863Z,20
2018-12-05T14:54:16.826Z,15
2018-12-05T14:55:26.554Z,15
2018-12-05T14:56:36.257Z,15
2018-12-05T14:57:45.959Z,15
2018-12-05T14:58:55.489Z,10
2018-12-05T15:00:05.212Z,10
2018-12-05T15:01:14.941Z,10
2018-12-05T15:02:24.125Z,10
2018-12-05T15:03:34.079Z,5
2018-12-05T15:04:43.800Z,5
2018-12-05T15:05:53.505Z,5
2018-12-05T15:07:03.207Z,5
2018-12-05T15:08:13.289Z,5
2018-12-05T15:09:23.239Z,5
2018-12-05T15:10:32.928Z,0
2018-12-05T15:11:42.912Z,0
2018-12-05T15:12:52.859Z,0
2018-12-05T15:14:02.548Z,0
2018-12-05T15:15:12.515Z,0
2018-12-05T15:16:22.205Z,0
2018-12-05T15:17:32.384Z,0
2018-12-05T15:18:42.353Z,0
2018-12-05T15:19:52.294Z,0
2018-12-05T15:21:01.993Z,0
2018-12-05T15:22:12.020Z,0
2018-12-05T15:23:21.714Z,0
2018-12-05T15:24:31.176Z,0
2018-12-05T15:25:41.133Z,0
2018-12-05T15:26:51.107Z,0
2018-12-05T15:28:01.052Z,0
2018-12-05T15:29:10.765Z,0
2018-12-05T15:30:20.769Z,0
2018-12-05T15:31:30.714Z,0
2018-12-05T15:32:40.413Z,0
2018-12-05T15:33:50.121Z,0
2018-12-05T15:35:01.768Z,0
2018-12-05T15:36:11.720Z,0
2018-12-05T15:37:21.661Z,0
2018-12-05T15:38:31.391Z,0
2018-12-05T15:39:41.341Z,0
2018-12-05T15:40:51.318Z,0
2018-12-05T15:42:01.014Z,0
2018-12-05T15:43:10.724Z,0
2018-12-05T15:44:20.669Z,0
2018-12-05T15:45:30.976Z,0
2018-12-05T15:46:40.930Z,0
2018-12-05T15:47:50.885Z,0
2018-12-05T15:49:00.830Z,0
2018-12-05T15:50:10.282Z,0
2018-12-05T15:51:20.229Z,0
2018-12-05T15:52:29.937Z,0
2018-12-05T15:53:39.899Z,0
2018-12-05T15:54:50.788Z,0
2018-12-05T15:56:00.740Z,0
2018-12-05T15:57:17.048Z,0
2018-12-05T15:58:26.998Z,0
2018-12-05T15:59:36.971Z,0
2018-12-05T16:00:46.915Z,0
2018-12-05T16:01:56.376Z,0
2018-12-05T16:03:06.078Z,0
2018-12-05T16:04:16.035Z,0
2018-12-05T16:05:25.973Z,0
2018-12-05T16:06:35.915Z,0
2018-12-05T16:07:45.855Z,0
2018-12-05T16:08:55.800Z,0
2018-12-05T16:10:05.769Z,0
2018-12-05T16:11:14.950Z,0
2018-12-05T16:12:24.904Z,0
2018-12-05T16:13:34.723Z,0
2018-12-05T16:14:44.412Z,0
2018-12-05T16:15:53.854Z,0
2018-12-05T16:17:03.288Z,0
2018-12-05T16:18:13.236Z,0
2018-12-05T16:19:23.179Z,0
2018-12-05T16:20:32.868Z,0
2018-12-05T16:21:42.822Z,0
2018-12-05T16:22:52.770Z,0
2018-12-05T16:24:02.492Z,0
2018-12-05T16:25:12.538Z,0
2018-12-05T16:26:22.501Z,0
2018-12-05T16:27:32.196Z,0
2018-12-05T16:28:41.898Z,0
2018-12-05T16:29:51.860Z,0
2018-12-05T16:31:01.803Z,0
2018-12-05T16:32:11.744Z,0
2018-12-05T16:33:21.711Z,0